sensor_id;sensor_type;location;lat;lon;timestamp;pressure;altitude;pressure_sealevel;temperature;humidity
20909;BME280;10614;53.198;6.570;2023-04-01T00:00:02;99214.09;;;10.25;100.00
20909;BME280;10614;53.198;6.570;2023-04-01T00:02:05;99207.16;;;10.24;100.00
20909;BME280;10614;53.198;6.570;2023-04-01T00:04:07;99213.38;;;10.23;100.00
20909;BME280;10614;53.198;6.570;2023-04-01T00:06:12;99209.03;;;10.22;100.00
20909;BME280;10614;53.198;6.570;2023-04-01T00:08:14;99209.88;;;10.23;100.00
20909;BME280;10614;53.198;6.570;2023-04-01T00:10:17;99210.00;;;10.21;100.00
20909;BME280;10614;53.198;6.570;2023-04-01T00:12:18;99211.66;;;10.22;100.00
20909;BME280;10614;53.198;6.570;2023-04-01T00:14:21;99213.47;;;10.22;100.00
20909;BME280;10614;53.198;6.570;2023-04-01T00:16:23;99210.00;;;10.21;100.00
20909;BME280;10614;53.198;6.570;2023-04-01T00:18:25;99204.81;;;10.20;100.00
20909;BME280;10614;53.198;6.570;2023-04-01T00:20:28;99212.72;;;10.20;100.00
20909;BME280;10614;53.198;6.570;2023-04-01T00:22:29;99211.13;;;10.17;100.00
20909;BME280;10614;53.198;6.570;2023-04-01T00:24:31;99214.59;;;10.18;100.00
20909;BME280;10614;53.198;6.570;2023-04-01T00:26:33;99213.84;;;10.15;100.00
20909;BME280;10614;53.198;6.570;2023-04-01T00:28:35;99213.75;;;10.17;100.00
20909;BME280;10614;53.198;6.570;2023-04-01T00:30:38;99216.47;;;10.15;100.00
20909;BME280;10614;53.198;6.570;2023-04-01T00:32:40;99214.72;;;10.16;100.00
20909;BME280;10614;53.198;6.570;2023-04-01T00:34:42;99208.50;;;10.17;100.00
20909;BME280;10614;53.198;6.570;2023-04-01T00:36:44;99205.13;;;10.15;100.00
20909;BME280;10614;53.198;6.570;2023-04-01T00:38:46;99207.53;;;10.18;100.00
20909;BME280;10614;53.198;6.570;2023-04-01T00:40:48;99207.53;;;10.18;100.00
20909;BME280;10614;53.198;6.570;2023-04-01T00:42:51;99210.16;;;10.18;100.00
20909;BME280;10614;53.198;6.570;2023-04-01T00:44:54;99217.13;;;10.19;100.00
20909;BME280;10614;53.198;6.570;2023-04-01T00:46:58;99210.09;;;10.20;100.00
20909;BME280;10614;53.198;6.570;2023-04-01T00:49:00;99206.69;;;10.18;100.00
20909;BME280;10614;53.198;6.570;2023-04-01T00:51:04;99208.41;;;10.19;100.00
20909;BME280;10614;53.198;6.570;2023-04-01T00:53:08;99208.41;;;10.19;100.00
20909;BME280;10614;53.198;6.570;2023-04-01T00:55:10;99207.53;;;10.18;100.00
20909;BME280;10614;53.198;6.570;2023-04-01T00:57:17;99205.13;;;10.15;100.00
20909;BME280;10614;53.198;6.570;2023-04-01T00:59:23;99212.09;;;10.16;100.00
20909;BME280;10614;53.198;6.570;2023-04-01T01:01:26;99207.75;;;10.15;100.00
20909;BME280;10614;53.198;6.570;2023-04-01T01:03:30;99215.72;;;10.13;100.00
20909;BME280;10614;53.198;6.570;2023-04-01T01:05:42;99201.84;;;10.11;100.00
20909;BME280;10614;53.198;6.570;2023-04-01T01:07:57;99217.44;;;10.14;100.00
20909;BME280;10614;53.198;6.570;2023-04-01T01:10:10;99213.09;;;10.13;100.00
20909;BME280;10614;53.198;6.570;2023-04-01T01:12:17;99211.34;;;10.14;100.00
20909;BME280;10614;53.198;6.570;2023-04-01T01:14:32;99213.09;;;10.13;100.00
20909;BME280;10614;53.198;6.570;2023-04-01T01:16:41;99215.72;;;10.13;100.00
20909;BME280;10614;53.198;6.570;2023-04-01T01:18:53;99213.97;;;10.14;100.00
20909;BME280;10614;53.198;6.570;2023-04-01T01:21:24;99215.84;;;10.12;100.00
20909;BME280;10614;53.198;6.570;2023-04-01T01:24:17;99218.47;;;10.12;100.00
20909;BME280;10614;53.198;6.570;2023-04-01T01:26:54;99220.25;;;10.11;100.00
20909;BME280;10614;53.198;6.570;2023-04-01T01:29:04;99227.28;;;10.11;100.00
20909;BME280;10614;53.198;6.570;2023-04-01T01:31:13;99225.53;;;10.11;100.00
20909;BME280;10614;53.198;6.570;2023-04-01T01:33:33;99222.88;;;10.11;100.00
20909;BME280;10614;53.198;6.570;2023-04-01T01:35:44;99226.44;;;10.10;100.00
20909;BME280;10614;53.198;6.570;2023-04-01T01:37:51;99222.13;;;10.09;100.00
20909;BME280;10614;53.198;6.570;2023-04-01T01:39:56;99222.13;;;10.09;100.00
20909;BME280;10614;53.198;6.570;2023-04-01T01:42:03;99226.44;;;10.10;100.00
20909;BME280;10614;53.198;6.570;2023-04-01T01:44:07;99227.41;;;10.09;100.00
20909;BME280;10614;53.198;6.570;2023-04-01T01:46:12;99226.44;;;10.10;100.00
20909;BME280;10614;53.198;6.570;2023-04-01T01:48:16;99230.03;;;10.09;100.00
20909;BME280;10614;53.198;6.570;2023-04-01T01:50:20;99228.31;;;10.08;100.00
20909;BME280;10614;53.198;6.570;2023-04-01T01:52:24;99230.13;;;10.08;100.00
20909;BME280;10614;53.198;6.570;2023-04-01T01:54:28;99228.31;;;10.08;100.00
20909;BME280;10614;53.198;6.570;2023-04-01T01:56:30;99228.31;;;10.08;100.00
20909;BME280;10614;53.198;6.570;2023-04-01T01:58:35;99225.81;;;10.07;100.00
20909;BME280;10614;53.198;6.570;2023-04-01T02:00:44;99234.34;;;10.10;100.00
20909;BME280;10614;53.198;6.570;2023-04-01T02:02:50;99238.00;;;10.08;100.00
20909;BME280;10614;53.198;6.570;2023-04-01T02:04:52;99229.28;;;10.07;100.00
20909;BME280;10614;53.198;6.570;2023-04-01T02:06:58;99241.59;;;10.07;100.00
20909;BME280;10614;53.198;6.570;2023-04-01T02:09:04;99246.84;;;10.07;100.00
20909;BME280;10614;53.198;6.570;2023-04-01T02:11:10;99242.50;;;10.06;100.00
20909;BME280;10614;53.198;6.570;2023-04-01T02:13:17;99243.34;;;10.06;100.00
20909;BME280;10614;53.198;6.570;2023-04-01T02:15:21;99242.59;;;10.04;100.00
20909;BME280;10614;53.198;6.570;2023-04-01T02:17:25;99243.47;;;10.05;100.00
20909;BME280;10614;53.198;6.570;2023-04-01T02:19:36;99244.31;;;10.05;100.00
20909;BME280;10614;53.198;6.570;2023-04-01T02:21:42;99250.47;;;10.04;100.00
20909;BME280;10614;53.198;6.570;2023-04-01T02:23:45;99250.47;;;10.04;100.00
20909;BME280;10614;53.198;6.570;2023-04-01T02:25:49;99252.41;;;10.02;100.00
20909;BME280;10614;53.198;6.570;2023-04-01T02:27:53;99257.66;;;10.02;100.00
20909;BME280;10614;53.198;6.570;2023-04-01T02:29:56;99255.03;;;10.02;100.00
20909;BME280;10614;53.198;6.570;2023-04-01T02:31:59;99249.75;;;10.02;100.00
20909;BME280;10614;53.198;6.570;2023-04-01T02:34:02;99255.09;;;10.01;100.00
20909;BME280;10614;53.198;6.570;2023-04-01T02:36:05;99251.63;;;10.00;100.00
20909;BME280;10614;53.198;6.570;2023-04-01T02:38:06;99258.56;;;10.01;100.00
20909;BME280;10614;53.198;6.570;2023-04-01T02:40:11;99258.56;;;10.01;100.00
20909;BME280;10614;53.198;6.570;2023-04-01T02:42:14;99259.53;;;10.00;100.00
20909;BME280;10614;53.198;6.570;2023-04-01T02:44:16;99259.53;;;10.00;100.00
20909;BME280;10614;53.198;6.570;2023-04-01T02:46:18;99252.00;;;9.94;100.00
20909;BME280;10614;53.198;6.570;2023-04-01T02:48:19;99264.88;;;9.99;100.00
20909;BME280;10614;53.198;6.570;2023-04-01T02:50:21;99262.31;;;9.97;100.00
20909;BME280;10614;53.198;6.570;2023-04-01T02:52:23;99263.06;;;9.99;100.00
20909;BME280;10614;53.198;6.570;2023-04-01T02:54:25;99264.88;;;9.99;100.00
20909;BME280;10614;53.198;6.570;2023-04-01T02:56:27;99266.56;;;10.00;100.00
20909;BME280;10614;53.198;6.570;2023-04-01T02:58:30;99270.13;;;9.99;100.00
20909;BME280;10614;53.198;6.570;2023-04-01T03:00:32;99271.91;;;9.98;100.00
20909;BME280;10614;53.198;6.570;2023-04-01T03:02:34;99278.97;;;9.98;100.00
20909;BME280;10614;53.198;6.570;2023-04-01T03:04:37;99272.97;;;9.96;100.00
20909;BME280;10614;53.198;6.570;2023-04-01T03:06:38;99273.78;;;9.96;100.00
20909;BME280;10614;53.198;6.570;2023-04-01T03:08:40;99271.16;;;9.96;100.00
20909;BME280;10614;53.198;6.570;2023-04-01T03:10:42;99278.22;;;9.96;100.00
20909;BME280;10614;53.198;6.570;2023-04-01T03:12:44;99275.59;;;9.96;100.00
20909;BME280;10614;53.198;6.570;2023-04-01T03:14:49;99284.31;;;9.96;100.00
20909;BME280;10614;53.198;6.570;2023-04-01T03:16:51;99284.31;;;9.96;100.00
20909;BME280;10614;53.198;6.570;2023-04-01T03:18:53;99285.97;;;9.97;100.00
20909;BME280;10614;53.198;6.570;2023-04-01T03:20:57;99289.56;;;9.96;100.00
20909;BME280;10614;53.198;6.570;2023-04-01T03:22:58;99290.59;;;9.93;100.00
20909;BME280;10614;53.198;6.570;2023-04-01T03:25:00;99286.19;;;9.94;100.00
20909;BME280;10614;53.198;6.570;2023-04-01T03:27:03;99282.72;;;9.93;100.00
20909;BME280;10614;53.198;6.570;2023-04-01T03:29:04;99288.91;;;9.92;100.00
20909;BME280;10614;53.198;6.570;2023-04-01T03:31:08;99294.16;;;9.92;100.00
20909;BME280;10614;53.198;6.570;2023-04-01T03:33:10;99302.16;;;9.91;100.00
20909;BME280;10614;53.198;6.570;2023-04-01T03:35:12;99296.97;;;9.89;100.00
20909;BME280;10614;53.198;6.570;2023-04-01T03:37:13;99302.31;;;9.88;100.00
20909;BME280;10614;53.198;6.570;2023-04-01T03:39:18;99300.56;;;9.88;100.00
20909;BME280;10614;53.198;6.570;2023-04-01T03:41:20;99298.84;;;9.87;100.00
20909;BME280;10614;53.198;6.570;2023-04-01T03:43:21;99300.72;;;9.85;100.00
20909;BME280;10614;53.198;6.570;2023-04-01T03:45:24;99312.13;;;9.86;100.00
20909;BME280;10614;53.198;6.570;2023-04-01T03:47:27;99306.84;;;9.86;100.00
20909;BME280;10614;53.198;6.570;2023-04-01T03:49:29;99309.47;;;9.86;100.00
20909;BME280;10614;53.198;6.570;2023-04-01T03:51:33;99305.97;;;9.85;100.00
20909;BME280;10614;53.198;6.570;2023-04-01T03:53:35;99308.63;;;9.85;100.00
20909;BME280;10614;53.198;6.570;2023-04-01T03:55:38;99307.78;;;9.85;100.00
20909;BME280;10614;53.198;6.570;2023-04-01T03:57:40;99321.75;;;9.85;100.00
20909;BME280;10614;53.198;6.570;2023-04-01T03:59:42;99314.75;;;9.86;100.00
20909;BME280;10614;53.198;6.570;2023-04-01T04:01:46;99323.53;;;9.85;100.00
20909;BME280;10614;53.198;6.570;2023-04-01T04:03:50;99319.13;;;9.85;100.00
20909;BME280;10614;53.198;6.570;2023-04-01T04:05:51;99321.88;;;9.84;100.00
20909;BME280;10614;53.198;6.570;2023-04-01T04:07:54;99328.91;;;9.83;100.00
20909;BME280;10614;53.198;6.570;2023-04-01T04:09:56;99332.47;;;9.82;100.00
20909;BME280;10614;53.198;6.570;2023-04-01T04:11:57;99329.91;;;9.81;100.00
20909;BME280;10614;53.198;6.570;2023-04-01T04:13:59;99331.72;;;9.80;100.00
20909;BME280;10614;53.198;6.570;2023-04-01T04:16:02;99330.88;;;9.80;100.00
20909;BME280;10614;53.198;6.570;2023-04-01T04:18:04;99339.59;;;9.80;100.00
20909;BME280;10614;53.198;6.570;2023-04-01T04:20:08;99338.84;;;9.78;100.00
20909;BME280;10614;53.198;6.570;2023-04-01T04:22:10;99337.09;;;9.79;100.00
20909;BME280;10614;53.198;6.570;2023-04-01T04:24:12;99333.59;;;9.78;100.00
20909;BME280;10614;53.198;6.570;2023-04-01T04:26:14;99338.00;;;9.78;100.00
20909;BME280;10614;53.198;6.570;2023-04-01T04:28:16;99346.72;;;9.78;100.00
20909;BME280;10614;53.198;6.570;2023-04-01T04:30:18;99344.22;;;9.77;100.00
20909;BME280;10614;53.198;6.570;2023-04-01T04:32:20;99352.09;;;9.77;100.00
20909;BME280;10614;53.198;6.570;2023-04-01T04:34:21;99347.66;;;9.77;100.00
20909;BME280;10614;53.198;6.570;2023-04-01T04:36:25;99354.72;;;9.77;100.00
20909;BME280;10614;53.198;6.570;2023-04-01T04:38:27;99356.59;;;9.75;100.00
20909;BME280;10614;53.198;6.570;2023-04-01T04:40:29;99351.34;;;9.75;100.00
20909;BME280;10614;53.198;6.570;2023-04-01T04:42:30;99356.47;;;9.76;100.00
20909;BME280;10614;53.198;6.570;2023-04-01T04:44:32;99358.25;;;9.76;100.00
20909;BME280;10614;53.198;6.570;2023-04-01T04:46:34;99365.22;;;9.77;100.00
20909;BME280;10614;53.198;6.570;2023-04-01T04:48:37;99361.84;;;9.75;100.00
20909;BME280;10614;53.198;6.570;2023-04-01T04:50:40;99373.13;;;9.77;100.00
20909;BME280;10614;53.198;6.570;2023-04-01T04:52:43;99369.63;;;9.76;100.00
20909;BME280;10614;53.198;6.570;2023-04-01T04:54:45;99371.41;;;9.76;100.00
20909;BME280;10614;53.198;6.570;2023-04-01T04:56:47;99372.25;;;9.76;100.00
20909;BME280;10614;53.198;6.570;2023-04-01T04:58:49;99378.25;;;9.78;100.00
20909;BME280;10614;53.198;6.570;2023-04-01T05:00:51;99377.41;;;9.78;100.00
20909;BME280;10614;53.198;6.570;2023-04-01T05:02:54;99383.50;;;9.78;100.00
20909;BME280;10614;53.198;6.570;2023-04-01T05:04:56;99385.31;;;9.78;100.00
20909;BME280;10614;53.198;6.570;2023-04-01T05:06:58;99399.28;;;9.78;100.00
20909;BME280;10614;53.198;6.570;2023-04-01T05:09:01;99396.75;;;9.77;100.00
20909;BME280;10614;53.198;6.570;2023-04-01T05:11:03;99393.19;;;9.78;100.00
20909;BME280;10614;53.198;6.570;2023-04-01T05:13:05;99394.97;;;9.77;100.00
20909;BME280;10614;53.198;6.570;2023-04-01T05:15:07;99401.06;;;9.78;100.00
20909;BME280;10614;53.198;6.570;2023-04-01T05:17:10;99406.31;;;9.78;100.00
20909;BME280;10614;53.198;6.570;2023-04-01T05:19:12;99404.53;;;9.78;100.00
20909;BME280;10614;53.198;6.570;2023-04-01T05:21:15;99406.25;;;9.79;100.00
20909;BME280;10614;53.198;6.570;2023-04-01T05:23:17;99409.78;;;9.78;100.00
20909;BME280;10614;53.198;6.570;2023-04-01T05:25:22;99413.38;;;9.77;100.00
20909;BME280;10614;53.198;6.570;2023-04-01T05:27:24;99408.94;;;9.78;100.00
20909;BME280;10614;53.198;6.570;2023-04-01T05:29:26;99413.38;;;9.77;100.00
20909;BME280;10614;53.198;6.570;2023-04-01T05:31:28;99416.06;;;9.76;100.00
20909;BME280;10614;53.198;6.570;2023-04-01T05:33:30;99421.31;;;9.76;100.00
20909;BME280;10614;53.198;6.570;2023-04-01T05:35:32;99423.13;;;9.75;100.00
20909;BME280;10614;53.198;6.570;2023-04-01T05:37:34;99427.53;;;9.75;100.00
20909;BME280;10614;53.198;6.570;2023-04-01T05:39:36;99430.16;;;9.75;100.00
20909;BME280;10614;53.198;6.570;2023-04-01T05:41:40;99430.16;;;9.75;100.00
20909;BME280;10614;53.198;6.570;2023-04-01T05:43:42;99439.72;;;9.76;100.00
20909;BME280;10614;53.198;6.570;2023-04-01T05:45:44;99437.09;;;9.76;100.00
20909;BME280;10614;53.198;6.570;2023-04-01T05:47:46;99444.97;;;9.76;100.00
20909;BME280;10614;53.198;6.570;2023-04-01T05:49:47;99439.72;;;9.76;100.00
20909;BME280;10614;53.198;6.570;2023-04-01T05:51:49;99448.56;;;9.75;100.00
20909;BME280;10614;53.198;6.570;2023-04-01T05:53:51;99447.59;;;9.76;100.00
20909;BME280;10614;53.198;6.570;2023-04-01T05:55:53;99454.56;;;9.77;100.00
20909;BME280;10614;53.198;6.570;2023-04-01T05:57:57;99455.50;;;9.76;100.00
20909;BME280;10614;53.198;6.570;2023-04-01T05:59:58;99455.41;;;9.77;100.00
20909;BME280;10614;53.198;6.570;2023-04-01T06:02:00;99458.13;;;9.76;100.00
20909;BME280;10614;53.198;6.570;2023-04-01T06:04:02;99460.75;;;9.76;100.00
20909;BME280;10614;53.198;6.570;2023-04-01T06:06:10;99460.75;;;9.76;100.00
20909;BME280;10614;53.198;6.570;2023-04-01T06:08:16;99467.78;;;9.75;100.00
20909;BME280;10614;53.198;6.570;2023-04-01T06:10:20;99466.84;;;9.76;100.00
20909;BME280;10614;53.198;6.570;2023-04-01T06:12:40;99471.25;;;9.76;100.00
20909;BME280;10614;53.198;6.570;2023-04-01T06:14:54;99478.22;;;9.77;100.00
20909;BME280;10614;53.198;6.570;2023-04-01T06:17:13;99483.38;;;9.78;100.00
20909;BME280;10614;53.198;6.570;2023-04-01T06:19:25;99479.81;;;9.79;100.00
20909;BME280;10614;53.198;6.570;2023-04-01T06:22:00;99492.00;;;9.80;100.00
20909;BME280;10614;53.198;6.570;2023-04-01T06:24:16;99490.22;;;9.81;100.00
20909;BME280;10614;53.198;6.570;2023-04-01T06:26:30;99499.81;;;9.82;100.00
20909;BME280;10614;53.198;6.570;2023-04-01T06:29:01;99501.59;;;9.81;100.00
20909;BME280;10614;53.198;6.570;2023-04-01T06:31:17;99498.03;;;9.82;100.00
20909;BME280;10614;53.198;6.570;2023-04-01T06:33:34;99503.22;;;9.84;100.00
20909;BME280;10614;53.198;6.570;2023-04-01T06:35:56;99516.25;;;9.85;100.00
20909;BME280;10614;53.198;6.570;2023-04-01T06:40:44;99515.41;;;9.85;100.00
20909;BME280;10614;53.198;6.570;2023-04-01T06:42:59;99519.63;;;9.87;100.00
20909;BME280;10614;53.198;6.570;2023-04-01T06:45:13;99509.38;;;9.83;100.00
20909;BME280;10614;53.198;6.570;2023-04-01T06:47:30;99530.13;;;9.87;100.00
20909;BME280;10614;53.198;6.570;2023-04-01T06:49:47;99530.06;;;9.89;100.00
20909;BME280;10614;53.198;6.570;2023-04-01T06:51:58;99529.97;;;9.90;100.00
20909;BME280;10614;53.198;6.570;2023-04-01T06:54:06;99537.00;;;9.90;100.00
20909;BME280;10614;53.198;6.570;2023-04-01T06:56:14;99531.66;;;9.91;100.00
20909;BME280;10614;53.198;6.570;2023-04-01T06:58:21;99537.75;;;9.92;100.00
20909;BME280;10614;53.198;6.570;2023-04-01T07:00:28;99542.00;;;9.94;100.00
20909;BME280;10614;53.198;6.570;2023-04-01T07:02:37;99537.69;;;9.93;100.00
20909;BME280;10614;53.198;6.570;2023-04-01T07:04:44;99547.25;;;9.94;100.00
20909;BME280;10614;53.198;6.570;2023-04-01T07:06:52;99544.53;;;9.96;100.00
20909;BME280;10614;53.198;6.570;2023-04-01T07:08:57;99549.81;;;9.96;100.00
20909;BME280;10614;53.198;6.570;2023-04-01T07:11:03;99552.44;;;9.96;100.00
20909;BME280;10614;53.198;6.570;2023-04-01T07:13:09;99555.06;;;9.96;100.00
20909;BME280;10614;53.198;6.570;2023-04-01T07:15:18;99555.25;;;9.93;100.00
20909;BME280;10614;53.198;6.570;2023-04-01T07:17:23;99562.19;;;9.94;100.00
20909;BME280;10614;53.198;6.570;2023-04-01T07:19:31;99563.03;;;9.94;100.00
20909;BME280;10614;53.198;6.570;2023-04-01T07:21:39;99570.81;;;9.96;100.00
20909;BME280;10614;53.198;6.570;2023-04-01T07:23:44;99573.38;;;9.98;100.00
20909;BME280;10614;53.198;6.570;2023-04-01T07:25:51;99578.63;;;9.98;100.00
20909;BME280;10614;53.198;6.570;2023-04-01T07:28:00;99584.66;;;10.00;100.00
20909;BME280;10614;53.198;6.570;2023-04-01T07:30:12;99575.91;;;9.99;100.00
20909;BME280;10614;53.198;6.570;2023-04-01T07:32:23;99586.34;;;10.01;100.00
20909;BME280;10614;53.198;6.570;2023-04-01T07:34:35;99586.34;;;10.01;100.00
20909;BME280;10614;53.198;6.570;2023-04-01T07:36:43;99590.84;;;9.99;100.00
20909;BME280;10614;53.198;6.570;2023-04-01T07:38:54;99599.56;;;9.99;100.00
20909;BME280;10614;53.198;6.570;2023-04-01T07:41:06;99604.75;;;10.01;100.00
20909;BME280;10614;53.198;6.570;2023-04-01T07:43:28;99599.41;;;10.02;100.00
20909;BME280;10614;53.198;6.570;2023-04-01T07:45:37;99604.66;;;10.02;100.00
20909;BME280;10614;53.198;6.570;2023-04-01T07:47:55;99607.09;;;10.05;100.00
20909;BME280;10614;53.198;6.570;2023-04-01T07:50:10;99607.09;;;10.05;100.00
20909;BME280;10614;53.198;6.570;2023-04-01T07:52:20;99617.53;;;10.07;100.00
20909;BME280;10614;53.198;6.570;2023-04-01T07:54:32;99615.75;;;10.07;100.00
20909;BME280;10614;53.198;6.570;2023-04-01T07:56:41;99623.53;;;10.09;100.00
20909;BME280;10614;53.198;6.570;2023-04-01T07:58:53;99631.41;;;10.09;100.00
20909;BME280;10614;53.198;6.570;2023-04-01T08:01:06;99629.66;;;10.09;100.00
20909;BME280;10614;53.198;6.570;2023-04-01T08:03:25;99631.34;;;10.10;100.00
20909;BME280;10614;53.198;6.570;2023-04-01T08:05:36;99633.13;;;10.10;100.00
20909;BME280;10614;53.198;6.570;2023-04-01T08:07:47;99635.84;;;10.08;100.00
20909;BME280;10614;53.198;6.570;2023-04-01T08:09:58;99636.69;;;10.09;100.00
20909;BME280;10614;53.198;6.570;2023-04-01T08:12:14;99644.31;;;10.13;100.00
20909;BME280;10614;53.198;6.570;2023-04-01T08:14:26;99643.38;;;10.14;100.00
20909;BME280;10614;53.198;6.570;2023-04-01T08:16:37;99647.53;;;10.19;100.00
20909;BME280;10614;53.198;6.570;2023-04-01T08:18:46;99657.03;;;10.21;100.00
20909;BME280;10614;53.198;6.570;2023-04-01T08:20:57;99656.94;;;10.23;100.00
20909;BME280;10614;53.198;6.570;2023-04-01T08:23:06;99661.16;;;10.25;100.00
20909;BME280;10614;53.198;6.570;2023-04-01T08:25:14;99668.94;;;10.28;100.00
20909;BME280;10614;53.198;6.570;2023-04-01T08:27:23;99666.19;;;10.30;100.00
20909;BME280;10614;53.198;6.570;2023-04-01T08:29:32;99673.94;;;10.33;100.00
20909;BME280;10614;53.198;6.570;2023-04-01T08:31:45;99668.47;;;10.36;100.00
20909;BME280;10614;53.198;6.570;2023-04-01T08:33:50;99673.47;;;10.41;100.00
20909;BME280;10614;53.198;6.570;2023-04-01T08:35:59;99675.91;;;10.44;100.00
20909;BME280;10614;53.198;6.570;2023-04-01T08:38:09;99678.47;;;10.45;100.00
20909;BME280;10614;53.198;6.570;2023-04-01T08:40:27;99680.25;;;10.45;100.00
20909;BME280;10614;53.198;6.570;2023-04-01T08:42:55;99681.88;;;10.47;100.00
20909;BME280;10614;53.198;6.570;2023-04-01T08:45:15;99686.94;;;10.50;100.00
20909;BME280;10614;53.198;6.570;2023-04-01T08:47:28;99692.13;;;10.52;100.00
20909;BME280;10614;53.198;6.570;2023-04-01T08:49:48;99693.72;;;10.54;100.00
20909;BME280;10614;53.198;6.570;2023-04-01T08:52:18;99697.88;;;10.59;100.00
20909;BME280;10614;53.198;6.570;2023-04-01T08:55:01;99703.78;;;10.62;100.00
20909;BME280;10614;53.198;6.570;2023-04-01T08:57:11;99710.59;;;10.66;100.00
20909;BME280;10614;53.198;6.570;2023-04-01T08:59:38;99713.13;;;10.68;100.00
20909;BME280;10614;53.198;6.570;2023-04-01T09:01:58;99717.19;;;10.73;100.00
20909;BME280;10614;53.198;6.570;2023-04-01T09:04:22;99720.50;;;10.77;100.00
20909;BME280;10614;53.198;6.570;2023-04-01T09:06:37;99730.00;;;10.80;100.00
20909;BME280;10614;53.198;6.570;2023-04-01T09:08:53;99729.13;;;10.79;100.00
20909;BME280;10614;53.198;6.570;2023-04-01T09:11:07;99737.97;;;10.78;100.00
20909;BME280;10614;53.198;6.570;2023-04-01T09:13:32;99739.34;;;10.69;100.00
20909;BME280;10614;53.198;6.570;2023-04-01T09:16:05;99755.50;;;10.63;100.00
20909;BME280;10614;53.198;6.570;2023-04-01T09:20:58;99752.53;;;10.53;100.00
20909;BME280;10614;53.198;6.570;2023-04-01T09:23:25;99758.81;;;10.51;100.00
20909;BME280;10614;53.198;6.570;2023-04-01T09:28:10;99758.94;;;10.33;100.00
20909;BME280;10614;53.198;6.570;2023-04-01T09:30:33;99769.28;;;10.37;100.00
20909;BME280;10614;53.198;6.570;2023-04-01T09:32:53;99769.38;;;10.35;100.00
20909;BME280;10614;53.198;6.570;2023-04-01T09:35:10;99777.16;;;10.37;100.00
20909;BME280;10614;53.198;6.570;2023-04-01T09:37:33;99773.63;;;10.38;100.00
20909;BME280;10614;53.198;6.570;2023-04-01T09:39:37;99791.16;;;10.37;100.00
20909;BME280;10614;53.198;6.570;2023-04-01T09:41:51;99782.53;;;10.35;100.00
20909;BME280;10614;53.198;6.570;2023-04-01T09:44:03;99790.31;;;10.37;100.00
20909;BME280;10614;53.198;6.570;2023-04-01T09:46:14;99797.19;;;10.39;100.00
20909;BME280;10614;53.198;6.570;2023-04-01T09:51:15;99811.03;;;10.43;100.00
20909;BME280;10614;53.198;6.570;2023-04-01T09:53:42;99809.25;;;10.43;100.00
20909;BME280;10614;53.198;6.570;2023-04-01T10:09:59;99837.84;;;10.33;100.00
20909;BME280;10614;53.198;6.570;2023-04-01T10:17:55;99860.59;;;10.34;100.00
20909;BME280;10614;53.198;6.570;2023-04-01T10:20:24;99850.22;;;10.31;100.00
20909;BME280;10614;53.198;6.570;2023-04-01T10:25:24;99872.13;;;10.32;100.00
20909;BME280;10614;53.198;6.570;2023-04-01T10:30:19;99879.25;;;10.30;100.00
20909;BME280;10614;53.198;6.570;2023-04-01T10:35:44;99881.25;;;10.25;100.00
20909;BME280;10614;53.198;6.570;2023-04-01T10:40:38;99886.28;;;10.29;100.00
20909;BME280;10614;53.198;6.570;2023-04-01T10:48:24;99902.00;;;10.31;100.00
20909;BME280;10614;53.198;6.570;2023-04-01T10:51:19;99902.66;;;10.34;100.00
20909;BME280;10614;53.198;6.570;2023-04-01T10:56:46;99908.88;;;10.33;100.00
20909;BME280;10614;53.198;6.570;2023-04-01T11:02:15;99915.81;;;10.34;100.00
20909;BME280;10614;53.198;6.570;2023-04-01T11:10:36;99928.38;;;10.29;100.00
20909;BME280;10614;53.198;6.570;2023-04-01T11:13:43;99937.97;;;10.30;100.00
20909;BME280;10614;53.198;6.570;2023-04-01T11:16:12;99939.66;;;10.31;100.00
20909;BME280;10614;53.198;6.570;2023-04-01T11:18:56;99945.69;;;10.33;100.00
20909;BME280;10614;53.198;6.570;2023-04-01T11:24:14;99949.28;;;10.32;100.00
20909;BME280;10614;53.198;6.570;2023-04-01T11:26:33;99959.03;;;10.30;100.00
20909;BME280;10614;53.198;6.570;2023-04-01T11:28:58;99956.47;;;10.29;100.00
20909;BME280;10614;53.198;6.570;2023-04-01T11:31:20;99957.44;;;10.26;100.00
20909;BME280;10614;53.198;6.570;2023-04-01T11:33:29;99967.19;;;10.24;100.00
20909;BME280;10614;53.198;6.570;2023-04-01T11:36:03;99970.59;;;10.26;100.00
20909;BME280;10614;53.198;6.570;2023-04-01T11:38:30;99973.94;;;10.30;100.00
20909;BME280;10614;53.198;6.570;2023-04-01T11:40:44;99973.78;;;10.33;100.00
20909;BME280;10614;53.198;6.570;2023-04-01T11:42:52;99980.84;;;10.32;100.00
20909;BME280;10614;53.198;6.570;2023-04-01T11:45:03;99978.03;;;10.35;100.00
20909;BME280;10614;53.198;6.570;2023-04-01T11:47:29;99993.72;;;10.37;100.00
20909;BME280;10614;53.198;6.570;2023-04-01T11:49:47;99990.09;;;10.40;100.00
20909;BME280;10614;53.198;6.570;2023-04-01T11:52:05;99994.34;;;10.42;100.00
20909;BME280;10614;53.198;6.570;2023-04-01T11:54:19;99992.50;;;10.44;100.00
20909;BME280;10614;53.198;6.570;2023-04-01T11:56:38;100000.28;;;10.46;100.00
20909;BME280;10614;53.198;6.570;2023-04-01T11:59:02;100007.28;;;10.47;100.00
20909;BME280;10614;53.198;6.570;2023-04-01T12:01:23;100016.78;;;10.49;100.00
20909;BME280;10614;53.198;6.570;2023-04-01T12:03:43;100020.09;;;10.53;100.00
20909;BME280;10614;53.198;6.570;2023-04-01T12:05:53;100020.69;;;10.58;100.00
20909;BME280;10614;53.198;6.570;2023-04-01T12:08:13;100029.28;;;10.62;100.00
20909;BME280;10614;53.198;6.570;2023-04-01T12:10:20;100041.50;;;10.63;100.00
20909;BME280;10614;53.198;6.570;2023-04-01T12:12:31;100037.09;;;10.63;100.00
20909;BME280;10614;53.198;6.570;2023-04-01T12:14:45;100038.00;;;10.62;100.00
20909;BME280;10614;53.198;6.570;2023-04-01T12:16:58;100049.38;;;10.63;100.00
20909;BME280;10614;53.198;6.570;2023-04-01T12:19:11;100040.75;;;10.61;100.00
20909;BME280;10614;53.198;6.570;2023-04-01T12:21:24;100052.03;;;10.63;100.00